createdAt,value
2023-10-20T00:00:00.200Z,39.5
2023-10-20T00:05:00.161Z,38.2
2023-10-20T00:10:00.161Z,36.2
2023-10-20T00:15:00.181Z,33.9
2023-10-20T00:20:00.242Z,33.9
2023-10-20T00:25:00.183Z,41.2
2023-10-20T00:30:00.176Z,44
2023-10-20T00:35:00.215Z,33.9
2023-10-20T00:40:00.164Z,35.3
2023-10-20T00:45:00.165Z,35.8
2023-10-20T00:50:00.177Z,35.8
2023-10-20T00:55:00.152Z,50.3
2023-10-20T01:00:00.210Z,51.5
2023-10-20T01:05:00.197Z,38.1
2023-10-20T01:10:00.193Z,35.6
2023-10-20T01:15:00.154Z,35.6
2023-10-20T01:20:00.178Z,35.6
2023-10-20T01:25:00.163Z,35.8
2023-10-20T01:30:00.155Z,34.9
2023-10-20T01:35:00.179Z,51.6
2023-10-20T01:40:00.204Z,30.4
2023-10-20T01:45:00.204Z,33.7
2023-10-20T01:50:00.198Z,33.7
2023-10-20T01:55:00.202Z,36.6
2023-10-20T02:00:00.195Z,35.5
2023-10-20T02:05:00.201Z,61.1
2023-10-20T02:10:00.156Z,41.7
2023-10-20T02:15:00.138Z,49.6
2023-10-20T02:20:00.186Z,49.6
2023-10-20T02:25:00.150Z,58.3
2023-10-20T02:30:00.202Z,40.3
2023-10-20T02:35:00.186Z,45.1
2023-10-20T02:40:00.169Z,49.9
2023-10-20T02:45:00.184Z,47.1
2023-10-20T02:50:00.217Z,47.1
2023-10-20T02:55:00.159Z,49.3
2023-10-20T03:00:00.195Z,45.3
2023-10-20T03:05:00.261Z,50.6
2023-10-20T03:10:00.176Z,48.8
2023-10-20T03:15:00.161Z,49.1
2023-10-20T03:20:00.232Z,49.1
2023-10-20T03:25:00.142Z,46.2
2023-10-20T03:30:00.163Z,54.7
2023-10-20T03:35:00.153Z,43.1
2023-10-20T03:40:00.187Z,43.8
2023-10-20T03:45:00.165Z,46.4
2023-10-20T03:50:00.140Z,46.4
2023-10-20T03:55:00.158Z,48.7
2023-10-20T04:00:00.155Z,45
2023-10-20T04:05:00.164Z,41.8
2023-10-20T04:10:00.178Z,39.4
2023-10-20T04:15:00.136Z,36.6
2023-10-20T04:20:00.177Z,36.6
2023-10-20T04:25:00.159Z,40.4
2023-10-20T04:30:00.191Z,37.7
2023-10-20T04:35:00.137Z,34.3
2023-10-20T04:40:00.216Z,36.4
2023-10-20T04:45:00.114Z,36.1
2023-10-20T04:50:00.167Z,36.1
2023-10-20T04:55:00.143Z,34.5
2023-10-20T05:00:00.137Z,34.5
2023-10-20T05:05:00.121Z,35.8
2023-10-20T05:10:00.129Z,36.6
2023-10-20T05:15:00.125Z,39.3
2023-10-20T05:20:00.145Z,39.3
2023-10-20T05:25:00.111Z,35.7
2023-10-20T05:30:00.183Z,34.8
2023-10-20T05:35:00.123Z,35.3
2023-10-20T05:40:00.132Z,32
2023-10-20T05:45:02.519Z,38.2
2023-10-20T05:50:00.168Z,38.2
2023-10-20T05:55:00.130Z,31.1
2023-10-20T06:00:00.163Z,33.8
2023-10-20T06:05:00.149Z,36.8
2023-10-20T06:10:00.149Z,43.6
2023-10-20T06:15:00.138Z,34
2023-10-20T06:20:00.354Z,34
2023-10-20T06:25:00.146Z,37.4
2023-10-20T06:30:00.198Z,38.4
2023-10-20T06:35:00.125Z,37.4
2023-10-20T06:40:00.142Z,41.5
2023-10-20T06:45:00.156Z,34.8
2023-10-20T06:50:00.169Z,34.8
2023-10-20T06:55:30.481Z,38.2
2023-10-20T07:00:00.177Z,37.5
2023-10-20T07:05:00.149Z,35.6
2023-10-20T07:10:00.183Z,37.4
2023-10-20T07:15:00.148Z,37.3
2023-10-20T07:20:00.146Z,37.3
2023-10-20T07:25:00.141Z,33.3
2023-10-20T07:30:00.212Z,36.3
2023-10-20T07:35:00.119Z,34.3
2023-10-20T07:40:00.146Z,36.8
2023-10-20T07:45:00.146Z,38.6
2023-10-20T07:50:00.143Z,38.6
2023-10-20T07:55:00.123Z,40.2
2023-10-20T08:00:00.133Z,40.4
2023-10-20T08:05:00.350Z,34
2023-10-20T08:10:00.163Z,37.4
2023-10-20T08:15:00.143Z,42.3
2023-10-20T08:20:00.148Z,42.3
2023-10-20T08:25:00.151Z,37.5
2023-10-20T08:30:00.130Z,40.2
2023-10-20T08:35:00.276Z,33.6
2023-10-20T08:40:00.118Z,31.4
2023-10-20T08:45:00.141Z,30
2023-10-20T08:50:00.120Z,30
2023-10-20T08:55:00.109Z,31.4
2023-10-20T09:00:00.218Z,26.5
2023-10-20T09:05:00.136Z,26.9
2023-10-20T09:10:00.135Z,25
2023-10-20T09:15:00.181Z,24.7
2023-10-20T09:20:00.140Z,24.7
2023-10-20T09:25:00.230Z,24.1
2023-10-20T09:30:00.144Z,24.3
2023-10-20T09:35:00.129Z,21.5
2023-10-20T09:40:00.154Z,24.9
2023-10-20T09:45:00.174Z,23.6
2023-10-20T09:50:00.160Z,23.6
2023-10-20T09:55:00.170Z,25.8
2023-10-20T10:00:00.198Z,24.7
2023-10-20T10:05:00.116Z,23.6
2023-10-20T10:10:00.123Z,24.6
2023-10-20T10:15:00.217Z,25.3
2023-10-20T10:20:00.169Z,25.3
2023-10-20T10:25:00.111Z,23.3
2023-10-20T10:30:00.190Z,21.3
2023-10-20T10:35:00.332Z,24.8
2023-10-20T10:40:00.116Z,21.1
2023-10-20T10:45:00.169Z,22.8
2023-10-20T10:50:00.163Z,22.8
2023-10-20T10:55:00.126Z,23.6
2023-10-20T11:00:01.948Z,28.4
2023-10-20T11:05:00.129Z,22.3
2023-10-20T11:10:00.167Z,19.8
2023-10-20T11:15:00.266Z,20
2023-10-20T11:20:00.137Z,20
2023-10-20T11:25:00.139Z,19.1
2023-10-20T11:30:00.217Z,19
2023-10-20T11:35:00.108Z,19.6
2023-10-20T11:40:00.157Z,20.5
2023-10-20T11:45:00.204Z,18.4
2023-10-20T11:50:00.140Z,18.4
2023-10-20T12:00:00.199Z,18.3
2023-10-20T12:05:00.177Z,18.7
2023-10-20T12:10:00.177Z,19.5
2023-10-20T12:15:00.217Z,22.2
2023-10-20T12:20:00.155Z,22.2
2023-10-20T12:25:00.146Z,21
2023-10-20T12:30:00.207Z,22.9
2023-10-20T12:35:00.206Z,23.8
2023-10-20T12:40:00.186Z,23.2
2023-10-20T12:45:00.236Z,21
2023-10-20T12:50:00.158Z,21
2023-10-20T12:55:00.145Z,39.6
2023-10-20T13:00:00.197Z,53.6
2023-10-20T13:05:00.136Z,28.9
2023-10-20T13:10:00.165Z,34.6
2023-10-20T13:15:00.230Z,30.9
2023-10-20T13:20:00.165Z,30.9
2023-10-20T13:25:00.133Z,32
2023-10-20T13:30:00.231Z,32.1
2023-10-20T13:35:00.143Z,22.8
2023-10-20T13:40:00.182Z,26.6
2023-10-20T13:45:00.184Z,34.3
2023-10-20T13:50:00.134Z,34.3
2023-10-20T13:55:00.139Z,33
2023-10-20T14:00:00.195Z,22.7
2023-10-20T14:05:00.152Z,33.8
2023-10-20T14:10:00.144Z,37.1
2023-10-20T14:15:00.237Z,19.5
2023-10-20T14:20:00.220Z,19.5
2023-10-20T14:25:00.153Z,28.4
2023-10-20T14:30:00.250Z,15
2023-10-20T14:35:00.860Z,11.1
2023-10-20T14:40:00.130Z,11
2023-10-20T14:45:00.184Z,7.5
2023-10-20T14:50:00.129Z,7.5
2023-10-20T14:55:00.150Z,13.9
2023-10-20T15:00:00.185Z,11.4
2023-10-20T15:05:02.099Z,14.7
2023-10-20T15:10:00.132Z,32
2023-10-20T15:15:00.196Z,13.9
2023-10-20T15:20:00.177Z,13.9
2023-10-20T15:25:00.201Z,17.2
2023-10-20T15:30:00.397Z,15.4
2023-10-20T15:35:00.150Z,12.8
2023-10-20T15:45:00.209Z,7.1
2023-10-20T15:50:00.184Z,7.1
2023-10-20T15:55:00.146Z,7.8
2023-10-20T16:00:00.265Z,8.3
2023-10-20T16:05:00.155Z,7
2023-10-20T16:10:00.185Z,13.3
2023-10-20T16:15:00.181Z,10.6
2023-10-20T16:20:00.167Z,10.6
2023-10-20T16:25:00.324Z,10.1
2023-10-20T16:30:00.288Z,6.1
2023-10-20T16:35:00.133Z,9.5
2023-10-20T16:40:00.157Z,3.3
2023-10-20T16:45:00.248Z,3.7
2023-10-20T16:50:00.218Z,3.7
2023-10-20T16:55:00.144Z,2.7
2023-10-20T17:00:00.226Z,2.6
2023-10-20T17:05:00.210Z,2.4
2023-10-20T17:10:00.156Z,2.5
2023-10-20T17:15:00.196Z,2.4
2023-10-20T17:20:00.206Z,2.4
2023-10-20T17:25:00.164Z,1.5
2023-10-20T17:30:00.209Z,1.9
2023-10-20T17:35:00.151Z,2.1
2023-10-20T17:40:00.220Z,2.1
2023-10-20T17:45:00.267Z,1.3
2023-10-20T17:50:00.229Z,1.3
2023-10-20T17:55:00.123Z,1.5
2023-10-20T18:00:00.213Z,2
2023-10-20T18:05:00.181Z,1.3
2023-10-20T18:10:00.146Z,1.9
2023-10-20T18:15:00.203Z,2.5
2023-10-20T18:20:00.183Z,2.5
2023-10-20T18:25:00.155Z,1.5
2023-10-20T18:30:00.192Z,1.2
2023-10-20T18:35:00.176Z,1.3
2023-10-20T18:40:00.170Z,0.9
2023-10-20T18:45:00.252Z,1.8
2023-10-20T18:50:00.173Z,1.8
2023-10-20T18:55:00.157Z,2.9
2023-10-20T19:00:00.180Z,0.9
2023-10-20T19:05:00.138Z,2.9
2023-10-20T19:10:00.143Z,3.6
2023-10-20T19:15:00.212Z,3.5
2023-10-20T19:20:00.221Z,3.5
2023-10-20T19:25:00.151Z,1.8
2023-10-20T19:30:00.204Z,2.3
2023-10-20T19:35:00.163Z,1.6
2023-10-20T19:40:00.171Z,1.9
2023-10-20T19:45:00.241Z,2
2023-10-20T19:50:00.156Z,2
2023-10-20T19:55:00.143Z,2.7
2023-10-20T20:00:00.222Z,2
2023-10-20T20:05:00.180Z,2.8
2023-10-20T20:10:00.130Z,4.9
2023-10-20T20:15:00.279Z,2.4
2023-10-20T20:20:00.166Z,2.4
2023-10-20T20:25:00.138Z,2.2
2023-10-20T20:30:00.185Z,2
2023-10-20T20:35:00.139Z,1.8
2023-10-20T20:40:00.161Z,1.5
2023-10-20T20:45:00.198Z,1.7
2023-10-20T20:50:00.166Z,1.7
2023-10-20T20:55:00.247Z,1.7
2023-10-20T21:00:00.277Z,1.5
2023-10-20T21:05:00.153Z,1.8
2023-10-20T21:10:00.164Z,1.3
2023-10-20T21:15:00.201Z,1
2023-10-20T21:20:00.238Z,1
2023-10-20T21:25:00.161Z,1.8
2023-10-20T21:30:00.200Z,3
2023-10-20T21:35:00.096Z,2.9
2023-10-20T21:40:00.134Z,3.5
2023-10-20T21:45:00.162Z,3.1
2023-10-20T21:50:00.152Z,3.1
2023-10-20T21:55:00.108Z,3.8
2023-10-20T22:00:00.133Z,4.5
2023-10-20T22:05:00.118Z,4.4
2023-10-20T22:10:00.101Z,3.5
2023-10-20T22:15:00.183Z,6
2023-10-20T22:20:00.119Z,6
2023-10-20T22:25:00.157Z,2.6
2023-10-20T22:30:00.202Z,4.7
2023-10-20T22:35:02.442Z,2.9
2023-10-20T22:40:00.157Z,3.3
2023-10-20T22:45:00.176Z,3.5
2023-10-20T22:50:00.133Z,3.5
2023-10-20T22:55:00.117Z,3.7
2023-10-20T23:00:00.425Z,8.3
2023-10-20T23:05:00.150Z,11.7
2023-10-20T23:10:00.194Z,9.8
2023-10-20T23:15:00.197Z,3.9
2023-10-20T23:20:00.159Z,3.9
2023-10-20T23:25:00.154Z,2.9
2023-10-20T23:30:00.154Z,4.5
2023-10-20T23:35:00.142Z,3.1
2023-10-20T23:40:00.186Z,4.4
2023-10-20T23:45:00.210Z,3.9
2023-10-20T23:50:00.154Z,3.9
2023-10-20T23:55:00.169Z,4.5
